Terminal Aerodrome Forecast
Issued by NWS

Home | Current Version | Previous Version | Text Only | Print | Product List | Glossary On
Versions: 1 2 3 4 5 6 7 8 9 10 11 12 13 14 15 16 17 18 19
000
FTUS45 KVEF 261120
TAFHND
TAF
KHND 261120Z 2612/2712 22012KT P6SM FEW200
     FM261600 35016G26KT P6SM FEW250
     FM270200 02009KT P6SM FEW250=

USA.gov is the U.S. government's official web portal to all federal, state and local government web resources and services.